Airfield :
LOGIN :

Register | Disclaimer

   EN    FR    IT 

 










Legend :    VFR   Marginal VFR   IFR   Intensive IFR   Very Intensive IFR
Visi :
Ceiling :
>= 8 km
>= 3000ft
5 to 8 km
1000 to 3000 ft
1500m to 5 km
500 to 1000 ft
800 to 1500m
200 to 500 ft
< 800m
< 200 ft
Symbols :   Thunderstorms  Fog  Heavy snow  Heavy precipitations  Wind > 20 kt
SIGMETs :     Misc.  Thunderstorms  Icing  Turbulence  Mountain Waves  Volcanic Ashes






- Airport Elevation : 32 ft
- IATA code : LKZ


EGUL - RAF Lakenheath

CURRENT METAR :
  • 190555Z AUTO 34004KT 9999 BKN026 14/10 A3011 RMK AO2 BKN V FEW SLP200 T01380100 10145 20105 52012 FZRANO $

EXPIRED METARs :
  • 190500Z AUTO 00000KT 9999 SCT025 11/09 A3010 RMK AO2 SLP196 FZRANO $
  • 190455Z AUTO 00000KT 9999 BKN026 11/09 A3010 RMK AO2 CIG 025 RWY06 SLP196 T01100091 FZRANO $
  • 190435Z AUTO 00000KT 9999 BKN024 11/09 A3011 RMK AO2 SLP200 FZRANO $
  • 190355Z AUTO 34003KT 9999 CLR 11/09 A3010 RMK AO2 SLP196 T01110090 FZRANO $
  • 190320Z AUTO 36004KT 9999 SCT020 12/09 A3008 RMK AO2 SLPNO FZRANO $
  • 190255Z AUTO 01005KT 9999 OVC018 13/09 A3008 RMK AO2 SLPNO T01300094 52007 FZRANO $
  • 190240Z AUTO 36006KT 9999 OVC018 13/10 A3008 RMK AO2 CIG 016 RWY06 SLPNO FZRANO $
  • 190155Z AUTO 01008KT 9999 OVC015 13/10 A3007 RMK AO2 CIG 014 RWY06 SLPNO T01340100 FZRANO $

TAF TAF EGUL
Valid from the 18 at 05:00 until the 19 at 11:00 UTC


180500Z 1805/1911 29006KT 9000 BR SCT040 SCT080 QNH2991INS
BECMG 1806/1807 30009KT 9999 NSW SCT030 SCT070 QNH2993INS
BECMG 1811/1812 30012KT 9999 VCSH SCT030 BKN050 QNH2995INS
TEMPO 1817/1821 8000 -SHRA SCT020 BKN035
BECMG 1821/1822 01012KT 9999 NSW SCT004 BKN010 BKN030 QNH3005INS
TEMPO 1902/1905 BKN008
BECMG 1909/1910 03010G15KT 9999 SCT010 BKN030 QNH3005INS TX19/1812Z TN11/1904Z



MET'MAP, your aeronautical weather chart ! - Copyright ORBIFLY December 2007 - Disclaimer

ORBIFLY MET'MAP TEAM :

Programming & Development : Alexandra Zaïnal
Original concept : Baudouin d'Aumeries
Technical & hardware support : Manuel Goepfert
Assistance : Marc-Olivier Méhu




SOURCES & CREDITS :

   NOAA